Terminal Aerodrome Forecast
Issued by NWS

Home | Current Version | Previous Version | Text Only | Print | Product List | Glossary On
Versions: 1 2 3 4 5 6 7 8 9 10 11 12 13 14 15 16 17 18 19 20 21 22 23 24 25 26 27 28 29 30 31 32 33 34 35 36 37 38
000
FTUS43 KPAH 021100
TAFOWB
TAF
KOWB 021135Z 0212/0312 18005KT P6SM VCTS BKN060CB
      TEMPO 0212/0214 2SM TSRA BR OVC025CB
     FM021400 23007KT P6SM BKN035
     FM022200 23009KT P6SM SCT040
     FM030000 00000KT P6SM SKC
      TEMPO 0309/0312 4SM BR=

USA.gov is the U.S. government's official web portal to all federal, state and local government web resources and services.